createdAt,value
2023-05-20T00:00:31.255Z,5.28
2023-05-20T00:03:00.909Z,6.12
2023-05-20T00:05:28.426Z,6.00
2023-05-20T00:07:55.869Z,5.62
2023-05-20T00:10:23.575Z,5.78
2023-05-20T00:12:51.039Z,5.68
2023-05-20T00:17:46.246Z,6.10
2023-05-20T00:20:13.828Z,5.97
2023-05-20T00:22:41.313Z,6.30
2023-05-20T00:25:09.726Z,5.82
2023-05-20T00:27:37.137Z,5.35
2023-05-20T00:30:04.858Z,6.15
2023-05-20T00:32:32.856Z,6.15
2023-05-20T00:35:01.493Z,6.40
2023-05-20T00:37:29.272Z,6.20
2023-05-20T00:39:56.995Z,6.57
2023-05-20T00:42:25.620Z,6.03
2023-05-20T00:44:53.351Z,5.82
2023-05-20T00:47:25.310Z,6.20
2023-05-20T00:49:52.888Z,6.57
2023-05-20T00:52:20.905Z,6.28
2023-05-20T00:54:49.674Z,6.12
2023-05-20T00:57:17.416Z,6.28
2023-05-20T00:59:45.214Z,6.40
2023-05-20T01:02:12.941Z,6.47
2023-05-20T01:04:41.819Z,6.53
2023-05-20T01:07:09.632Z,6.03
2023-05-20T01:09:37.134Z,6.20
2023-05-20T01:12:23.537Z,6.20
2023-05-20T01:15:00.331Z,5.57
2023-05-20T01:17:31.250Z,6.03
2023-05-20T01:20:00.004Z,6.72
2023-05-20T01:22:28.317Z,5.65
2023-05-20T01:24:55.778Z,6.65
2023-05-20T01:27:23.976Z,6.18
2023-05-20T01:29:52.146Z,6.12
2023-05-20T01:32:23.182Z,6.00
2023-05-20T01:34:52.730Z,5.95
2023-05-20T01:37:22.225Z,5.22
2023-05-20T01:39:50.908Z,6.45
2023-05-20T01:42:19.746Z,6.15
2023-05-20T01:44:48.775Z,5.82
2023-05-20T01:47:16.220Z,6.10
2023-05-20T01:49:46.175Z,6.50
2023-05-20T01:52:13.953Z,6.35
2023-05-20T01:54:41.836Z,6.53
2023-05-20T01:57:10.330Z,6.18
2023-05-20T01:59:37.793Z,6.40
2023-05-20T02:02:05.406Z,6.32
2023-05-20T02:04:33.115Z,6.70
2023-05-20T02:07:00.579Z,6.68
2023-05-20T02:09:28.758Z,5.70
2023-05-20T02:11:56.475Z,6.28
2023-05-20T02:14:23.976Z,5.72
2023-05-20T02:16:51.469Z,5.95
2023-05-20T02:19:23.844Z,6.18
2023-05-20T02:21:51.846Z,6.62
2023-05-20T02:24:21.137Z,6.28
2023-05-20T02:26:51.162Z,6.15
2023-05-20T02:29:20.036Z,6.50
2023-05-20T02:31:47.889Z,6.40
2023-05-20T02:34:18.734Z,6.40
2023-05-20T02:36:46.688Z,7.30
2023-05-20T02:39:14.220Z,7.30
2023-05-20T02:41:41.673Z,7.28
2023-05-20T02:44:10.050Z,7.70
2023-05-20T02:46:37.508Z,7.30
2023-05-20T02:49:05.892Z,7.18
2023-05-20T02:51:33.699Z,7.22
2023-05-20T02:54:01.422Z,7.53
2023-05-20T02:56:29.020Z,7.00
2023-05-20T02:58:56.977Z,6.40
2023-05-20T03:01:24.674Z,7.45
2023-05-20T03:03:52.505Z,6.95
2023-05-20T03:06:20.621Z,7.05
2023-05-20T03:08:48.126Z,7.25
2023-05-20T03:11:16.032Z,6.90
2023-05-20T03:13:43.798Z,7.07
2023-05-20T03:16:13.212Z,7.47
2023-05-20T03:18:40.822Z,6.40
2023-05-20T03:21:08.954Z,6.53
2023-05-20T03:23:36.520Z,6.65
2023-05-20T03:26:04.012Z,6.25
2023-05-20T03:28:31.750Z,5.82
2023-05-20T03:30:59.265Z,6.37
2023-05-20T03:33:26.926Z,6.10
2023-05-20T03:35:54.945Z,6.55
2023-05-20T03:38:22.901Z,6.20
2023-05-20T03:40:50.408Z,6.68
2023-05-20T03:43:18.110Z,6.05
2023-05-20T03:45:45.718Z,6.15
2023-05-20T03:48:14.187Z,5.95
2023-05-20T03:50:43.315Z,5.72
2023-05-20T03:53:11.593Z,7.15
2023-05-20T03:55:39.599Z,5.72
2023-05-20T03:58:08.085Z,5.47
2023-05-20T04:00:35.705Z,6.20
2023-05-20T04:03:03.605Z,5.93
2023-05-20T04:05:31.411Z,5.43
2023-05-20T04:07:59.424Z,5.22
2023-05-20T04:10:27.322Z,5.15
2023-05-20T04:12:54.841Z,5.62
2023-05-20T04:15:23.958Z,5.57
2023-05-20T04:17:52.398Z,5.37
2023-05-20T04:20:20.049Z,5.62
2023-05-20T04:22:48.721Z,5.40
2023-05-20T04:25:17.196Z,5.10
2023-05-20T04:27:44.962Z,4.93
2023-05-20T04:30:12.825Z,4.93
2023-05-20T04:32:41.641Z,4.93
2023-05-20T04:35:12.124Z,4.95
2023-05-20T04:37:40.168Z,4.75
2023-05-20T04:40:09.234Z,5.30
2023-05-20T04:42:37.893Z,4.87
2023-05-20T04:45:06.163Z,5.55
2023-05-20T04:47:38.656Z,5.57
2023-05-20T04:50:10.990Z,5.28
2023-05-20T04:52:42.882Z,5.00
2023-05-20T04:55:12.096Z,5.47
2023-05-20T04:57:42.022Z,5.53
2023-05-20T05:00:12.336Z,5.60
2023-05-20T05:02:40.551Z,4.90
2023-05-20T05:05:08.571Z,4.35
2023-05-20T05:07:36.274Z,5.12
2023-05-20T05:10:04.399Z,5.70
2023-05-20T05:12:33.957Z,4.87
2023-05-20T05:15:01.457Z,5.00
2023-05-20T05:17:31.653Z,5.47
2023-05-20T05:19:59.314Z,5.32
2023-05-20T05:22:27.036Z,4.60
2023-05-20T05:24:55.845Z,5.05
2023-05-20T05:27:23.431Z,5.45
2023-05-20T05:29:50.992Z,5.05
2023-05-20T05:32:19.222Z,5.12
2023-05-20T05:34:46.798Z,5.68
2023-05-20T05:37:14.509Z,4.85
2023-05-20T05:39:42.619Z,5.85
2023-05-20T05:42:10.149Z,5.25
2023-05-20T05:44:38.474Z,5.43
2023-05-20T05:47:06.879Z,5.85
2023-05-20T05:49:34.534Z,5.65
2023-05-20T05:52:02.027Z,5.57
2023-05-20T05:54:29.863Z,5.12
2023-05-20T05:56:57.614Z,5.30
2023-05-20T05:59:25.799Z,5.37
2023-05-20T06:01:53.809Z,5.93
2023-05-20T06:04:21.770Z,5.80
2023-05-20T06:06:49.819Z,6.22
2023-05-20T06:09:17.255Z,5.55
2023-05-20T06:11:45.039Z,5.45
2023-05-20T06:14:12.494Z,5.53
2023-05-20T06:16:40.066Z,5.22
2023-05-20T06:19:09.497Z,5.32
2023-05-20T06:21:37.234Z,5.68
2023-05-20T06:24:05.660Z,5.57
2023-05-20T06:26:33.771Z,5.62
2023-05-20T06:29:01.319Z,5.50
2023-05-20T06:31:30.272Z,5.90
2023-05-20T06:33:58.368Z,5.60
2023-05-20T06:36:27.417Z,5.43
2023-05-20T06:38:54.965Z,5.47
2023-05-20T06:41:22.803Z,5.45
2023-05-20T06:43:53.344Z,5.37
2023-05-20T06:46:29.011Z,4.93
2023-05-20T06:48:56.864Z,5.53
2023-05-20T06:51:24.735Z,4.95
2023-05-20T06:53:52.242Z,5.53
2023-05-20T06:56:21.522Z,5.20
2023-05-20T06:58:49.592Z,5.62
2023-05-20T07:01:18.337Z,5.07
2023-05-20T07:03:46.528Z,5.37
2023-05-20T07:06:14.419Z,5.37
2023-05-20T07:08:41.844Z,5.60
2023-05-20T07:11:09.828Z,5.47
2023-05-20T07:13:37.845Z,5.70
2023-05-20T07:16:05.959Z,5.30
2023-05-20T07:18:33.466Z,5.72
2023-05-20T07:21:01.613Z,5.30
2023-05-20T07:23:29.557Z,5.18
2023-05-20T07:25:57.057Z,5.55
2023-05-20T07:28:25.010Z,5.47
2023-05-20T07:30:54.242Z,5.55
2023-05-20T07:33:23.822Z,5.07
2023-05-20T07:35:54.541Z,5.78
2023-05-20T07:38:22.652Z,5.57
2023-05-20T07:40:51.666Z,4.87
2023-05-20T07:43:19.891Z,5.68
2023-05-20T07:45:47.590Z,5.40
2023-05-20T07:48:15.571Z,5.20
2023-05-20T07:50:43.255Z,5.12
2023-05-20T07:53:11.253Z,5.82
2023-05-20T07:55:39.399Z,6.12
2023-05-20T07:58:06.972Z,5.60
2023-05-20T08:00:34.667Z,5.40
2023-05-20T08:03:03.159Z,5.78
2023-05-20T08:05:31.504Z,6.03
2023-05-20T08:07:59.752Z,5.93
2023-05-20T08:10:27.971Z,5.95
2023-05-20T08:12:55.966Z,5.70
2023-05-20T08:15:23.490Z,6.00
2023-05-20T08:17:51.346Z,6.03
2023-05-20T08:20:19.557Z,6.43
2023-05-20T08:22:47.471Z,5.85
2023-05-20T08:25:15.244Z,6.28
2023-05-20T08:27:42.895Z,5.53
2023-05-20T08:30:10.807Z,5.82
2023-05-20T08:32:38.574Z,5.55
2023-05-20T08:35:07.832Z,5.60
2023-05-20T08:37:35.750Z,5.80
2023-05-20T08:40:05.304Z,5.93
2023-05-20T08:42:32.889Z,5.93
2023-05-20T08:45:01.162Z,6.15
2023-05-20T08:47:29.308Z,6.30
2023-05-20T08:49:56.737Z,5.85
2023-05-20T08:52:24.760Z,5.93
2023-05-20T08:54:52.929Z,5.82
2023-05-20T08:57:21.195Z,5.53
2023-05-20T08:59:48.601Z,6.20
2023-05-20T09:02:16.434Z,5.80
2023-05-20T09:04:44.276Z,5.70
2023-05-20T09:07:11.845Z,5.87
2023-05-20T09:09:39.577Z,6.32
2023-05-20T09:12:07.280Z,6.95
2023-05-20T09:14:34.677Z,6.12
2023-05-20T09:17:02.412Z,5.30
2023-05-20T09:19:29.900Z,5.53
2023-05-20T09:21:58.309Z,5.53
2023-05-20T09:24:26.738Z,6.20
2023-05-20T09:26:54.513Z,6.07
2023-05-20T09:29:22.268Z,6.47
2023-05-20T09:31:50.652Z,6.10
2023-05-20T09:34:18.270Z,6.00
2023-05-20T09:36:47.481Z,6.20
2023-05-20T09:39:18.994Z,6.28
2023-05-20T09:41:56.906Z,5.80
2023-05-20T09:44:24.855Z,6.03
2023-05-20T09:46:53.950Z,6.50
2023-05-20T09:49:23.307Z,5.87
2023-05-20T09:51:51.872Z,5.72
2023-05-20T09:54:19.819Z,6.87
2023-05-20T09:56:48.030Z,6.30
2023-05-20T09:59:17.300Z,6.03
2023-05-20T10:01:45.881Z,7.50
2023-05-20T10:04:16.116Z,5.47
2023-05-20T10:06:56.036Z,6.22
2023-05-20T10:09:51.042Z,5.87
2023-05-20T10:13:01.255Z,6.07
2023-05-20T10:15:50.811Z,5.78
2023-05-20T10:18:27.273Z,9.00
2023-05-20T10:20:55.014Z,7.43
2023-05-20T10:23:28.961Z,8.20
2023-05-20T10:25:58.081Z,7.95
2023-05-20T10:28:30.551Z,6.53
2023-05-20T10:30:59.326Z,6.15
2023-05-20T10:33:28.194Z,5.80
2023-05-20T10:36:00.056Z,6.05
2023-05-20T10:38:27.821Z,6.50
2023-05-20T10:40:57.419Z,6.15
2023-05-20T10:43:28.831Z,5.07
2023-05-20T10:45:58.240Z,6.53
2023-05-20T10:48:30.873Z,8.50
2023-05-20T10:51:00.501Z,6.35
2023-05-20T10:53:34.125Z,5.65
2023-05-20T10:56:02.966Z,6.15
2023-05-20T10:58:38.401Z,6.35
2023-05-20T11:01:06.253Z,5.78
2023-05-20T11:03:35.637Z,5.65
2023-05-20T11:06:11.740Z,6.15
2023-05-20T11:08:39.643Z,5.45
2023-05-20T11:11:07.717Z,6.35
2023-05-20T11:13:35.589Z,5.80
2023-05-20T11:16:04.667Z,5.30
2023-05-20T11:18:32.252Z,5.53
2023-05-20T11:21:00.195Z,5.53
2023-05-20T11:23:29.104Z,5.50
2023-05-20T11:25:57.624Z,6.12
2023-05-20T11:28:25.322Z,8.52
2023-05-20T11:30:53.399Z,6.53
2023-05-20T11:33:21.009Z,6.72
2023-05-20T11:35:50.812Z,6.43
2023-05-20T11:38:19.381Z,5.78
2023-05-20T11:40:51.981Z,6.35
2023-05-20T11:43:20.396Z,7.07
2023-05-20T11:45:53.386Z,5.80
2023-05-20T11:48:21.732Z,5.97
2023-05-20T11:50:54.225Z,5.93
2023-05-20T11:53:23.816Z,6.50
2023-05-20T11:55:54.375Z,6.40
2023-05-20T11:58:26.880Z,6.55
2023-05-20T12:01:01.840Z,6.20
2023-05-20T12:03:37.369Z,6.43
2023-05-20T12:06:05.016Z,6.07
2023-05-20T12:08:32.722Z,6.43
2023-05-20T12:11:00.501Z,6.47
2023-05-20T12:13:27.946Z,6.30
2023-05-20T12:15:55.481Z,6.53
2023-05-20T12:18:23.370Z,6.25
2023-05-20T12:20:50.950Z,6.43
2023-05-20T12:23:18.644Z,5.80
2023-05-20T12:25:47.405Z,7.47
2023-05-20T12:28:14.949Z,7.07
2023-05-20T12:30:42.491Z,6.12
2023-05-20T12:33:10.519Z,6.72
2023-05-20T12:35:39.754Z,6.18
2023-05-20T12:38:07.672Z,6.07
2023-05-20T12:40:36.224Z,6.22
2023-05-20T12:43:05.384Z,6.50
2023-05-20T12:45:32.987Z,6.50
2023-05-20T12:48:00.921Z,6.22
2023-05-20T12:50:28.478Z,6.32
2023-05-20T12:52:55.995Z,6.05
2023-05-20T12:55:23.823Z,6.20
2023-05-20T12:57:51.478Z,7.10
2023-05-20T13:00:19.149Z,6.85
2023-05-20T13:02:47.268Z,6.78
2023-05-20T13:05:15.092Z,6.68
2023-05-20T13:07:42.503Z,6.35
2023-05-20T13:10:11.394Z,6.90
2023-05-20T13:12:39.379Z,6.18
2023-05-20T13:15:07.749Z,5.93
2023-05-20T13:17:35.746Z,6.57
2023-05-20T13:20:03.860Z,6.28
2023-05-20T13:22:31.691Z,7.25
2023-05-20T13:25:00.180Z,5.85
2023-05-20T13:27:27.990Z,7.05
2023-05-20T13:29:55.505Z,6.15
2023-05-20T13:32:23.510Z,6.85
2023-05-20T13:34:50.963Z,6.40
2023-05-20T13:37:19.581Z,5.97
2023-05-20T13:39:48.059Z,6.70
2023-05-20T13:42:15.735Z,6.93
2023-05-20T13:44:43.193Z,6.28
2023-05-20T13:47:11.630Z,6.32
2023-05-20T13:49:39.106Z,6.85
2023-05-20T13:52:06.686Z,6.15
2023-05-20T13:54:34.551Z,6.20
2023-05-20T13:57:03.120Z,6.72
2023-05-20T13:59:31.004Z,9.48
2023-05-20T14:01:58.739Z,7.25
2023-05-20T14:04:26.547Z,6.18
2023-05-20T14:06:54.150Z,7.82
2023-05-20T14:09:21.591Z,7.18
2023-05-20T14:11:49.385Z,7.15
2023-05-20T14:14:16.914Z,6.85
2023-05-20T14:16:44.329Z,6.87
2023-05-20T14:19:12.096Z,6.53
2023-05-20T14:21:39.627Z,6.03
2023-05-20T14:24:07.280Z,7.50
2023-05-20T14:26:35.025Z,7.15
2023-05-20T14:29:02.688Z,7.10
2023-05-20T14:31:30.433Z,7.05
2023-05-20T14:33:58.281Z,7.47
2023-05-20T14:36:25.771Z,7.53
2023-05-20T14:38:53.274Z,7.20
2023-05-20T14:41:22.425Z,7.00
2023-05-20T14:43:49.916Z,6.70
2023-05-20T14:46:17.889Z,6.85
2023-05-20T14:48:45.627Z,7.35
2023-05-20T14:51:13.186Z,6.55
2023-05-20T14:53:40.643Z,6.95
2023-05-20T14:56:08.369Z,6.97
2023-05-20T14:58:36.217Z,6.78
2023-05-20T15:01:03.978Z,9.05
2023-05-20T15:03:34.751Z,7.10
2023-05-20T15:06:02.272Z,6.97
2023-05-20T15:08:29.707Z,7.50
2023-05-20T15:10:57.574Z,6.85
2023-05-20T15:13:25.653Z,7.50
2023-05-20T15:16:03.045Z,6.97
2023-05-20T15:18:30.822Z,6.55
2023-05-20T15:21:00.663Z,7.05
2023-05-20T15:23:28.128Z,6.43
2023-05-20T15:25:59.524Z,6.45
2023-05-20T15:28:27.811Z,15.18
2023-05-20T15:30:55.966Z,9.80
2023-05-20T15:33:27.011Z,7.37
2023-05-20T15:35:54.539Z,11.30
2023-05-20T15:38:22.016Z,6.37
2023-05-20T15:40:50.843Z,8.63
2023-05-20T15:43:18.927Z,6.95
2023-05-20T15:45:49.217Z,6.90
2023-05-20T15:48:17.183Z,6.68
2023-05-20T15:50:44.731Z,6.43
2023-05-20T15:53:12.253Z,11.20
2023-05-20T15:55:39.984Z,6.78
2023-05-20T15:58:07.377Z,7.68
2023-05-20T16:00:35.079Z,6.90
2023-05-20T16:03:03.007Z,6.93
2023-05-20T16:05:30.518Z,6.40
2023-05-20T16:07:58.035Z,6.65
2023-05-20T16:10:27.490Z,6.70
2023-05-20T16:12:54.921Z,6.37
2023-05-20T16:15:22.662Z,6.97
2023-05-20T16:17:50.674Z,7.15
2023-05-20T16:20:18.231Z,6.90
2023-05-20T16:22:46.202Z,6.45
2023-05-20T16:25:14.250Z,6.35
2023-05-20T16:27:41.690Z,6.82
2023-05-20T16:30:10.145Z,7.10
2023-05-20T16:32:38.091Z,7.00
2023-05-20T16:35:06.578Z,6.68
2023-05-20T16:37:34.402Z,7.00
2023-05-20T16:40:02.125Z,7.65
2023-05-20T16:42:29.959Z,7.10
2023-05-20T16:44:57.745Z,6.90
2023-05-20T16:47:25.560Z,6.87
2023-05-20T16:49:53.062Z,6.95
2023-05-20T16:52:20.519Z,6.93
2023-05-20T16:54:49.006Z,6.40
2023-05-20T16:57:16.649Z,6.45
2023-05-20T16:59:44.117Z,6.15
2023-05-20T17:02:11.850Z,6.65
2023-05-20T17:04:39.372Z,7.30
2023-05-20T17:07:09.781Z,6.80
2023-05-20T17:09:37.517Z,6.85
2023-05-20T17:12:05.866Z,6.15
2023-05-20T17:14:33.398Z,6.60
2023-05-20T17:17:01.169Z,6.80
2023-05-20T17:19:28.722Z,7.18
2023-05-20T17:21:56.210Z,6.60
2023-05-20T17:24:23.889Z,6.47
2023-05-20T17:26:51.330Z,6.70
2023-05-20T17:29:18.782Z,5.47
2023-05-20T17:31:46.644Z,6.60
2023-05-20T17:34:14.151Z,6.82
2023-05-20T17:36:41.602Z,6.25
2023-05-20T17:39:09.777Z,7.03
2023-05-20T17:41:37.316Z,6.22
2023-05-20T17:44:05.030Z,6.37
2023-05-20T17:46:32.766Z,6.18
2023-05-20T17:49:00.419Z,6.07
2023-05-20T17:51:27.878Z,5.57
2023-05-20T17:53:55.574Z,6.25
2023-05-20T17:56:23.395Z,5.95
2023-05-20T17:58:50.840Z,6.53
2023-05-20T18:01:18.667Z,5.87
2023-05-20T18:03:46.725Z,5.72
2023-05-20T18:06:14.371Z,5.65
2023-05-20T18:08:42.410Z,5.12
2023-05-20T18:11:10.319Z,5.75
2023-05-20T18:13:37.735Z,5.70
2023-05-20T18:16:05.643Z,6.18
2023-05-20T18:18:33.471Z,5.15
2023-05-20T18:21:01.263Z,5.97
2023-05-20T18:23:28.711Z,6.22
2023-05-20T18:25:56.450Z,5.05
2023-05-20T18:28:23.897Z,5.78
2023-05-20T18:30:51.307Z,6.53
2023-05-20T18:33:19.079Z,6.68
2023-05-20T18:35:46.559Z,6.35
2023-05-20T18:38:13.939Z,6.43
2023-05-20T18:40:41.621Z,6.12
2023-05-20T18:43:09.055Z,6.05
2023-05-20T18:45:36.573Z,5.90
2023-05-20T18:48:05.138Z,6.32
2023-05-20T18:50:33.453Z,7.00
2023-05-20T18:53:01.461Z,6.62
2023-05-20T18:55:29.245Z,6.28
2023-05-20T18:57:56.683Z,6.45
2023-05-20T19:00:24.357Z,7.62
2023-05-20T19:02:52.159Z,7.18
2023-05-20T19:05:20.087Z,8.05
2023-05-20T19:07:47.634Z,8.73
2023-05-20T19:10:15.445Z,25.83
2023-05-20T19:12:43.566Z,19.95
2023-05-20T19:15:11.171Z,17.90
2023-05-20T19:17:39.502Z,16.80
2023-05-20T19:20:07.832Z,16.27
2023-05-20T19:22:35.760Z,15.77
2023-05-20T19:25:05.187Z,11.82
2023-05-20T19:27:32.646Z,9.05
2023-05-20T19:30:00.336Z,8.85
2023-05-20T19:32:28.111Z,7.68
2023-05-20T19:34:55.898Z,7.72
2023-05-20T19:37:23.427Z,8.30
2023-05-20T19:39:51.303Z,7.93
2023-05-20T19:42:18.841Z,7.53
2023-05-20T19:44:46.691Z,8.10
2023-05-20T19:47:14.595Z,8.00
2023-05-20T19:49:42.118Z,7.90
2023-05-20T19:52:09.605Z,9.45
2023-05-20T19:54:37.417Z,8.65
2023-05-20T19:57:05.142Z,8.50
2023-05-20T19:59:32.591Z,8.43
2023-05-20T20:02:02.856Z,8.45
2023-05-20T20:04:30.761Z,9.18
2023-05-20T20:06:58.234Z,8.18
2023-05-20T20:09:25.853Z,8.48
2023-05-20T20:11:53.900Z,8.50
2023-05-20T20:14:21.629Z,8.00
2023-05-20T20:16:49.538Z,7.82
2023-05-20T20:19:23.017Z,7.60
2023-05-20T20:21:53.156Z,8.63
2023-05-20T20:24:21.011Z,7.55
2023-05-20T20:26:48.551Z,7.15
2023-05-20T20:29:16.023Z,6.53
2023-05-20T20:31:43.763Z,7.12
2023-05-20T20:34:11.443Z,6.82
2023-05-20T20:36:39.700Z,6.85
2023-05-20T20:39:08.348Z,6.97
2023-05-20T20:41:38.645Z,7.07
2023-05-20T20:44:07.280Z,6.82
2023-05-20T20:46:37.585Z,7.15
2023-05-20T20:49:05.095Z,7.37
2023-05-20T20:51:32.785Z,6.78
2023-05-20T20:54:00.611Z,6.78
2023-05-20T20:56:28.109Z,6.90
2023-05-20T20:58:57.238Z,6.32
2023-05-20T21:01:25.494Z,6.35
2023-05-20T21:03:54.581Z,6.20
2023-05-20T21:06:22.166Z,6.03
2023-05-20T21:08:49.866Z,6.43
2023-05-20T21:11:17.896Z,6.45
2023-05-20T21:13:45.350Z,6.82
2023-05-20T21:16:13.133Z,6.60
2023-05-20T21:18:40.771Z,7.12
2023-05-20T21:21:12.076Z,6.87
2023-05-20T21:23:40.400Z,6.72
2023-05-20T21:26:07.971Z,6.03
2023-05-20T21:28:35.457Z,6.28
2023-05-20T21:31:03.449Z,6.65
2023-05-20T21:33:31.085Z,5.93
2023-05-20T21:35:58.522Z,6.50
2023-05-20T21:38:26.246Z,6.30
2023-05-20T21:40:53.693Z,6.00
2023-05-20T21:43:21.073Z,6.80
2023-05-20T21:45:48.768Z,6.35
2023-05-20T21:48:16.534Z,6.37
2023-05-20T21:50:43.964Z,6.15
2023-05-20T21:53:11.675Z,5.60
2023-05-20T21:55:39.246Z,7.62
2023-05-20T21:58:06.929Z,6.78
2023-05-20T22:00:35.013Z,6.65
2023-05-20T22:03:02.845Z,6.90
2023-05-20T22:05:30.352Z,6.50
2023-05-20T22:08:00.420Z,6.80
2023-05-20T22:10:28.119Z,6.55
2023-05-20T22:12:55.783Z,6.93
2023-05-20T22:15:23.270Z,6.12
2023-05-20T22:17:51.117Z,6.87
2023-05-20T22:20:18.901Z,6.07
2023-05-20T22:22:46.350Z,6.50
2023-05-20T22:25:14.237Z,6.40
2023-05-20T22:27:42.939Z,6.47
2023-05-20T22:30:11.802Z,6.18
2023-05-20T22:32:40.308Z,6.47
2023-05-20T22:35:08.607Z,6.20
2023-05-20T22:37:36.059Z,6.60
2023-05-20T22:40:04.254Z,6.43
2023-05-20T22:42:31.691Z,6.10
2023-05-20T22:44:59.193Z,6.85
2023-05-20T22:47:26.941Z,6.95
2023-05-20T22:49:54.776Z,6.57
2023-05-20T22:52:25.314Z,6.55
2023-05-20T22:54:53.086Z,6.70
2023-05-20T22:57:20.520Z,6.80
2023-05-20T22:59:48.026Z,6.72
2023-05-20T23:02:15.960Z,6.35
2023-05-20T23:04:43.586Z,6.82
2023-05-20T23:07:14.948Z,6.37
2023-05-20T23:09:42.985Z,6.40
2023-05-20T23:12:10.440Z,6.15
2023-05-20T23:14:38.166Z,6.12
2023-05-20T23:17:06.053Z,7.25
2023-05-20T23:19:33.845Z,6.62
2023-05-20T23:22:01.578Z,7.37
2023-05-20T23:24:29.299Z,6.18
2023-05-20T23:26:56.726Z,6.57
2023-05-20T23:29:24.177Z,6.37
2023-05-20T23:31:51.909Z,6.18
2023-05-20T23:34:19.785Z,6.43
2023-05-20T23:36:47.502Z,6.35
2023-05-20T23:39:18.051Z,6.55
2023-05-20T23:41:45.869Z,7.20
2023-05-20T23:44:13.351Z,6.80
2023-05-20T23:46:41.860Z,6.32
2023-05-20T23:49:10.193Z,7.45
2023-05-20T23:51:37.658Z,6.90
2023-05-20T23:54:05.405Z,6.10
2023-05-20T23:56:32.818Z,6.43
2023-05-20T23:59:00.228Z,6.68
